aviador You're here:

LFRJ Decoded Metar

LANDIVISIAU in FRANCE
Report Time2017-08-22 11:00:00
UTC Time2017-08-22 11:14:42
Flight Rules vfr VFR
Wind180° at 11 kt
W.Decomp.*RWY 26: 2.3 kt HW 10.8 kt LCW
W.Rank180° ranks 12
Current wind is above 180° avg. (8.4)
Visibility9999 m
Phenomena:N/A
Clouds:N/A
Expected CloudBase > 3,600 ft AGL from Temp-Dew spread
CeilingNone
Temp26°C (ISA +12)
Dew Point17°C (58% RH)
AAT24.5°C
QNH1015 hPa
Density Alt1,926 ft
Elevation377 ft
Report Wrong Elevation
Raw Report
METAR LFRJ 221100Z AUTO 18011KT 150V210 CAVOK 26/17 Q1015=

Extra information for LFRJ:More info

Metar Taf Metar & Taf Last 4 Metars F.Rules Stats Wind Profile Meteogram Temp Stats Airport Information Weather charts Add Link Nearby VenuesMetar ALERT Operation Metar Decoded Social comments